createdAt,value
2022-12-08T00:02:01.186Z,99864.59
2022-12-08T00:04:27.907Z,99863.44
2022-12-08T00:07:12.754Z,99866.34
2022-12-08T00:09:41.705Z,99866.69
2022-12-08T00:16:13.041Z,99862.72
2022-12-08T00:18:39.739Z,99849.59
2022-12-08T00:21:06.326Z,99852.28
2022-12-08T00:23:32.898Z,99854.75
2022-12-08T00:26:04.038Z,99855.19
2022-12-08T00:28:32.441Z,99846.44
2022-12-08T00:34:00.980Z,99855.81
2022-12-08T00:39:19.054Z,99857.69
2022-12-08T00:45:48.569Z,99865.78
2022-12-08T00:48:15.580Z,99870.94
2022-12-08T00:50:42.127Z,99866.25
2022-12-08T00:53:08.691Z,99853.47
2022-12-08T00:55:35.314Z,99860.94
2022-12-08T00:58:01.996Z,99861.53
2022-12-08T01:00:47.298Z,99867.50
2022-12-08T01:03:13.925Z,99859.56
2022-12-08T01:05:40.515Z,99865.06
2022-12-08T01:08:08.214Z,99865.84
2022-12-08T01:16:51.048Z,99865.69
2022-12-08T01:19:18.081Z,99866.25
2022-12-08T01:21:46.197Z,99865.91
2022-12-08T01:24:14.783Z,99867.31
2022-12-08T01:26:41.612Z,99876.94
2022-12-08T01:31:49.711Z,99864.47
2022-12-08T01:34:19.223Z,99870.66
2022-12-08T01:36:45.830Z,99867.22
2022-12-08T01:39:17.955Z,99857.97
2022-12-08T01:41:45.716Z,99860.50
2022-12-08T01:45:02.918Z,99860.72
2022-12-08T01:56:44.326Z,99853.06
2022-12-08T01:59:25.189Z,99854.91
2022-12-08T02:01:52.488Z,99839.22
2022-12-08T02:04:40.752Z,99838.16
2022-12-08T02:07:10.051Z,99835.47
2022-12-08T02:09:38.716Z,99836.53
2022-12-08T02:12:07.244Z,99829.03
2022-12-08T02:15:23.703Z,99830.31
2022-12-08T02:23:31.810Z,99828.16
2022-12-08T02:26:36.144Z,99826.28
2022-12-08T02:29:14.771Z,99825.84
2022-12-08T02:32:26.718Z,99826.81
2022-12-08T02:35:05.270Z,99820.66
2022-12-08T02:38:00.972Z,99812.47
2022-12-08T02:40:57.055Z,99820.28
2022-12-08T02:43:39.664Z,99819.00
2022-12-08T02:46:11.223Z,99816.25
2022-12-08T02:48:59.762Z,99817.34
2022-12-08T02:52:40.103Z,99822.75
2022-12-08T03:10:13.918Z,99812.94
2022-12-08T03:12:48.132Z,99815.06
2022-12-08T03:15:18.400Z,99818.84
2022-12-08T03:17:51.306Z,99816.03
2022-12-08T03:20:21.489Z,99811.25
2022-12-08T03:22:50.661Z,99810.25
2022-12-08T03:29:23.795Z,99807.94
2022-12-08T03:31:54.778Z,99807.72
2022-12-08T03:48:33.144Z,99797.41
2022-12-08T03:51:39.186Z,99794.25
2022-12-08T03:54:49.460Z,99792.59
2022-12-08T03:57:19.970Z,99801.16
2022-12-08T04:11:09.082Z,99787.44
2022-12-08T04:13:37.534Z,99788.03
2022-12-08T04:16:10.277Z,99787.69
2022-12-08T04:19:02.734Z,99786.97
2022-12-08T04:21:29.316Z,99769.72
2022-12-08T04:24:06.294Z,99771.00
2022-12-08T04:26:35.698Z,99773.28
2022-12-08T04:29:02.290Z,99764.22
2022-12-08T04:31:28.909Z,99766.16
2022-12-08T04:34:04.741Z,99778.81
2022-12-08T04:42:10.898Z,99775.22
2022-12-08T04:44:37.451Z,99780.37
2022-12-08T04:47:04.364Z,99777.81
2022-12-08T04:49:50.804Z,99777.91
2022-12-08T04:52:17.411Z,99769.22
2022-12-08T04:54:43.949Z,99772.87
2022-12-08T04:57:10.505Z,99776.72
2022-12-08T04:59:37.093Z,99779.37
2022-12-08T05:02:03.810Z,99776.34
2022-12-08T05:04:30.644Z,99776.38
2022-12-08T05:06:57.520Z,99776.81
2022-12-08T05:09:52.029Z,99775.75
2022-12-08T05:12:38.790Z,99778.22
2022-12-08T05:15:06.059Z,99776.00
2022-12-08T05:17:32.651Z,99775.53
2022-12-08T05:19:59.185Z,99788.25
2022-12-08T05:22:25.726Z,99777.91
2022-12-08T05:24:52.263Z,99773.66
2022-12-08T05:27:18.786Z,99772.69
2022-12-08T05:29:45.324Z,99777.50
2022-12-08T05:32:11.855Z,99771.69
2022-12-08T05:34:38.534Z,99766.78
2022-12-08T05:37:05.075Z,99755.72
2022-12-08T05:39:31.626Z,99749.41
2022-12-08T05:41:59.569Z,99743.63
2022-12-08T05:44:41.590Z,99744.53
2022-12-08T05:47:08.130Z,99756.53
2022-12-08T05:49:34.657Z,99756.69
2022-12-08T05:52:01.178Z,99762.09
2022-12-08T05:54:45.479Z,99763.06
2022-12-08T05:57:37.791Z,99761.06
2022-12-08T06:00:05.626Z,99761.25
2022-12-08T06:02:35.822Z,99763.00
2022-12-08T06:05:02.792Z,99759.72
2022-12-08T06:07:29.338Z,99766.72
2022-12-08T06:25:40.671Z,99772.25
2022-12-08T06:28:07.372Z,99784.88
2022-12-08T06:30:50.731Z,99772.41
2022-12-08T06:33:17.143Z,99770.94
2022-12-08T06:35:43.692Z,99781.66
2022-12-08T06:38:10.247Z,99778.00
2022-12-08T06:40:36.810Z,99784.28
2022-12-08T08:27:28.769Z,99768.47
2022-12-08T08:29:55.324Z,99763.41
2022-12-08T08:32:21.902Z,99766.38
2022-12-08T08:34:48.504Z,99762.13
2022-12-08T08:37:15.588Z,99763.47
2022-12-08T08:39:43.133Z,99763.63
2022-12-08T08:42:09.740Z,99765.78
2022-12-08T08:44:37.482Z,99763.88
2022-12-08T08:47:04.045Z,99759.50
2022-12-08T08:49:30.647Z,99762.28
2022-12-08T08:51:57.259Z,99769.75
2022-12-08T08:54:35.826Z,99776.19
2022-12-08T09:57:26.981Z,99727.03
2022-12-08T09:59:59.916Z,99725.09
2022-12-08T10:02:30.294Z,99718.94
2022-12-08T10:04:58.754Z,99711.66
2022-12-08T10:07:34.375Z,99711.41
2022-12-08T10:42:53.492Z,99684.69
2022-12-08T10:45:41.687Z,99666.94
2022-12-08T10:48:25.457Z,99674.28
2022-12-08T10:50:57.093Z,99665.97
2022-12-08T10:53:26.547Z,99644.81
2022-12-08T10:56:28.701Z,99644.13
2022-12-08T11:30:36.903Z,99589.00
2022-12-08T11:33:12.287Z,99579.16
2022-12-08T11:35:41.624Z,99567.06
2022-12-08T11:38:26.629Z,99553.25
2022-12-08T11:41:07.518Z,99548.28
2022-12-08T11:49:05.593Z,99546.91
2022-12-08T11:51:34.906Z,99553.38
2022-12-08T11:54:18.803Z,99543.56
2022-12-08T11:56:52.854Z,99540.59
2022-12-08T11:59:29.057Z,99545.66
2022-12-08T12:01:59.824Z,99550.66
2022-12-08T12:05:04.157Z,99545.03
2022-12-08T12:07:58.852Z,99542.97
2022-12-08T12:10:35.278Z,99531.78
2022-12-08T12:13:23.545Z,99542.63
2022-12-08T12:30:18.986Z,99538.59
2022-12-08T12:32:58.301Z,99532.84
2022-12-08T12:48:40.756Z,99536.84
2022-12-08T12:51:44.878Z,99528.50
2022-12-08T12:54:29.328Z,99518.91
2022-12-08T12:57:17.472Z,99518.19
2022-12-08T13:00:07.236Z,99515.19
2022-12-08T13:02:39.988Z,99504.59
2022-12-08T13:05:29.069Z,99519.03
2022-12-08T13:07:59.668Z,99505.16
2022-12-08T13:10:29.945Z,99501.94
2022-12-08T13:13:10.364Z,99498.63
2022-12-08T13:15:37.038Z,99480.78
2022-12-08T13:18:05.232Z,99493.72
2022-12-08T13:20:42.087Z,99495.53
2022-12-08T13:23:46.945Z,99486.47
2022-12-08T13:26:18.008Z,99493.59
2022-12-08T13:34:12.909Z,99493.91
2022-12-08T13:36:56.468Z,99491.97
2022-12-08T13:42:03.676Z,99499.78
2022-12-08T13:47:34.784Z,99504.31
2022-12-08T13:59:26.931Z,99496.41
2022-12-08T14:01:54.885Z,99491.34
2022-12-08T14:04:53.931Z,99493.38
2022-12-08T14:07:12.031Z,99487.84
2022-12-08T14:09:40.260Z,99481.88
2022-12-08T14:12:17.485Z,99482.81
2022-12-08T14:15:02.608Z,99486.38
2022-12-08T14:23:10.112Z,99490.97
2022-12-08T14:42:02.865Z,99494.31
2022-12-08T14:44:32.194Z,99496.44
2022-12-08T14:47:07.279Z,99498.06
2022-12-08T14:49:39.358Z,99505.00
2022-12-08T14:52:12.428Z,99502.38
2022-12-08T14:54:40.051Z,99497.06
2022-12-08T14:57:08.040Z,99488.69
2022-12-08T14:59:37.892Z,99494.41
2022-12-08T15:02:21.818Z,99489.28
2022-12-08T15:05:29.192Z,99490.06
2022-12-08T15:08:02.481Z,99490.19
2022-12-08T15:10:32.091Z,99482.91
2022-12-08T15:27:40.924Z,99481.81
2022-12-08T15:30:15.670Z,99477.84
2022-12-08T15:32:43.055Z,99478.62
2022-12-08T15:35:18.739Z,99490.81
2022-12-08T15:54:11.524Z,99471.16
2022-12-08T15:57:17.232Z,99461.50
2022-12-08T15:59:35.733Z,99477.69
2022-12-08T16:02:02.416Z,99475.84
2022-12-08T16:07:26.008Z,99472.69
2022-12-08T16:09:53.463Z,99473.22
2022-12-08T16:38:01.863Z,99437.03
2022-12-08T16:40:28.459Z,99445.28
2022-12-08T16:42:55.103Z,99444.47
2022-12-08T16:45:37.629Z,99450.84
2022-12-08T16:48:14.622Z,99443.81
2022-12-08T16:50:45.795Z,99458.75
2022-12-08T16:53:14.817Z,99451.81
2022-12-08T16:55:47.478Z,99450.66
2022-12-08T16:58:14.614Z,99454.69
2022-12-08T17:00:41.903Z,99453.44
2022-12-08T17:03:08.799Z,99466.53
2022-12-08T17:05:36.477Z,99457.50
2022-12-08T17:08:03.176Z,99470.03
2022-12-08T17:10:31.890Z,99470.00
2022-12-08T17:13:01.822Z,99465.22
2022-12-08T17:15:28.881Z,99467.50
2022-12-08T17:17:55.494Z,99466.63
2022-12-08T17:20:25.365Z,99479.12
2022-12-08T17:23:03.594Z,99485.50
2022-12-08T17:28:37.118Z,99477.53
2022-12-08T17:31:14.406Z,99470.03
2022-12-08T17:33:41.728Z,99455.78
2022-12-08T17:36:11.435Z,99458.34
2022-12-08T17:41:27.680Z,99450.38
2022-12-08T17:43:54.879Z,99443.00
2022-12-08T17:46:23.067Z,99441.75
2022-12-08T17:48:50.127Z,99445.19
2022-12-08T17:51:17.091Z,99444.25
2022-12-08T17:53:44.047Z,99453.56
2022-12-08T17:56:19.024Z,99452.50
2022-12-08T17:58:51.295Z,99452.22
2022-12-08T18:01:20.894Z,99441.88
2022-12-08T18:03:47.530Z,99433.84
2022-12-08T18:06:14.197Z,99432.25
2022-12-08T18:08:40.846Z,99435.84
2022-12-08T18:11:14.205Z,99444.22
2022-12-08T18:13:40.982Z,99442.16
2022-12-08T18:16:07.749Z,99442.81
2022-12-08T18:18:34.452Z,99448.25
2022-12-08T18:21:02.560Z,99447.56
2022-12-08T18:23:29.387Z,99444.75
2022-12-08T18:25:55.989Z,99449.25
2022-12-08T18:28:23.739Z,99456.81
2022-12-08T18:30:50.768Z,99463.72
2022-12-08T18:33:17.696Z,99463.78
2022-12-08T18:35:44.496Z,99458.25
2022-12-08T18:38:13.698Z,99455.88
2022-12-08T18:40:43.239Z,99464.88
2022-12-08T18:43:09.819Z,99456.84
2022-12-08T18:45:44.253Z,99451.78
2022-12-08T18:48:11.538Z,99454.38
2022-12-08T18:50:43.044Z,99454.31
2022-12-08T19:15:08.013Z,99455.50
2022-12-08T19:17:34.954Z,99454.66
2022-12-08T19:20:01.792Z,99457.59
2022-12-08T19:22:29.267Z,99456.28
2022-12-08T19:27:34.182Z,99456.91
2022-12-08T19:30:00.829Z,99456.34
2022-12-08T19:32:27.474Z,99453.56
2022-12-08T19:34:54.317Z,99447.25
2022-12-08T19:37:21.039Z,99457.69
2022-12-08T19:40:06.311Z,99458.81
2022-12-08T19:42:51.480Z,99448.56
2022-12-08T19:45:21.615Z,99459.09
2022-12-08T19:47:48.921Z,99463.03
2022-12-08T19:50:35.494Z,99460.47
2022-12-08T19:53:17.987Z,99453.28
2022-12-08T19:55:44.609Z,99453.25
2022-12-08T19:58:11.554Z,99451.41
2022-12-08T20:00:39.268Z,99435.56
2022-12-08T20:25:59.401Z,99430.09
2022-12-08T20:28:25.951Z,99432.66
2022-12-08T20:30:52.737Z,99436.81
2022-12-08T20:33:19.926Z,99431.06
2022-12-08T20:35:46.917Z,99438.91
2022-12-08T20:38:16.041Z,99435.50
2022-12-08T20:40:44.158Z,99429.56
2022-12-08T20:43:10.792Z,99432.38
2022-12-08T20:45:37.359Z,99437.75
2022-12-08T20:48:07.007Z,99435.91
2022-12-08T20:50:33.641Z,99441.00
2022-12-08T20:53:00.501Z,99440.28
2022-12-08T20:55:27.229Z,99444.97
2022-12-08T20:57:54.007Z,99457.00
2022-12-08T21:00:23.240Z,99457.44
2022-12-08T21:02:56.058Z,99466.75
2022-12-08T21:05:23.530Z,99457.56
2022-12-08T21:07:50.236Z,99462.28
2022-12-08T21:10:17.361Z,99465.53
2022-12-08T21:12:43.984Z,99463.62
2022-12-08T21:15:12.501Z,99466.38
2022-12-08T21:17:39.463Z,99461.03
2022-12-08T21:20:10.580Z,99460.31
2022-12-08T21:22:40.523Z,99454.50
2022-12-08T21:25:08.639Z,99444.13
2022-12-08T21:30:17.202Z,99430.91
2022-12-08T21:35:25.204Z,99434.56
2022-12-08T21:37:51.967Z,99431.28
2022-12-08T21:40:18.973Z,99431.34
2022-12-08T21:43:42.131Z,99429.25
2022-12-08T21:46:39.778Z,99422.09
2022-12-08T21:49:07.077Z,99433.75
2022-12-08T21:51:35.390Z,99431.38
2022-12-08T21:54:01.971Z,99440.03
2022-12-08T21:56:28.556Z,99440.69
2022-12-08T21:58:55.256Z,99431.47
2022-12-08T22:01:54.001Z,99433.09
2022-12-08T22:04:21.899Z,99422.03
2022-12-08T22:06:48.728Z,99437.44
2022-12-08T22:09:15.568Z,99438.94
2022-12-08T22:12:55.353Z,99439.31
2022-12-08T22:16:21.572Z,99438.25
2022-12-08T22:26:54.087Z,99436.06
2022-12-08T22:29:26.986Z,99443.41
2022-12-08T22:31:53.594Z,99449.59
2022-12-08T22:34:20.249Z,99444.37
2022-12-08T22:36:49.036Z,99442.56
2022-12-08T22:39:15.739Z,99433.59
2022-12-08T22:41:42.259Z,99438.94
2022-12-08T22:44:09.135Z,99433.81
2022-12-08T22:49:25.210Z,99446.22
2022-12-08T22:51:52.912Z,99443.53
2022-12-08T22:54:19.564Z,99429.72
2022-12-08T22:56:46.310Z,99430.69
2022-12-08T22:59:12.937Z,99433.31
2022-12-08T23:02:26.580Z,99432.00
2022-12-08T23:08:16.159Z,99442.16
2022-12-08T23:10:44.373Z,99441.03
2022-12-08T23:13:12.057Z,99431.78
2022-12-08T23:15:39.607Z,99431.59
2022-12-08T23:18:07.588Z,99436.47
2022-12-08T23:21:09.714Z,99434.00
2022-12-08T23:23:36.803Z,99437.72
2022-12-08T23:26:04.467Z,99442.13
2022-12-08T23:28:31.080Z,99429.00
2022-12-08T23:30:57.763Z,99437.78
2022-12-08T23:36:58.564Z,99442.94
2022-12-08T23:39:25.198Z,99441.25
2022-12-08T23:41:51.773Z,99429.78
2022-12-08T23:44:18.634Z,99427.22
2022-12-08T23:46:45.516Z,99416.75
2022-12-08T23:49:12.388Z,99421.16
2022-12-08T23:51:57.741Z,99417.31
2022-12-08T23:54:24.349Z,99420.94
2022-12-08T23:56:51.120Z,99409.13
2022-12-08T23:59:17.704Z,99405.97
